createdAt,value
2022-07-26T00:01:58.433Z,3.25
2022-07-26T00:04:26.248Z,3.53
2022-07-26T00:06:53.790Z,3.22
2022-07-26T00:09:21.326Z,3.20
2022-07-26T00:11:49.118Z,3.20
2022-07-26T00:14:16.638Z,3.30
2022-07-26T00:16:44.201Z,3.42
2022-07-26T00:19:12.194Z,3.42
2022-07-26T00:21:40.615Z,3.03
2022-07-26T00:24:09.157Z,3.70
2022-07-26T00:26:37.473Z,3.10
2022-07-26T00:29:06.025Z,3.10
2022-07-26T00:31:33.917Z,3.17
2022-07-26T00:34:01.761Z,3.30
2022-07-26T00:36:29.853Z,3.45
2022-07-26T00:38:57.362Z,3.08
2022-07-26T00:41:25.118Z,3.50
2022-07-26T00:43:57.316Z,3.22
2022-07-26T00:46:25.284Z,3.10
2022-07-26T00:48:52.925Z,3.20
2022-07-26T00:51:21.322Z,3.17
2022-07-26T00:53:49.438Z,3.85
2022-07-26T00:56:17.476Z,3.20
2022-07-26T00:58:45.037Z,3.45
2022-07-26T01:01:12.975Z,3.17
2022-07-26T01:03:40.521Z,3.45
2022-07-26T01:06:08.790Z,3.50
2022-07-26T01:08:36.803Z,3.05
2022-07-26T01:11:04.387Z,2.95
2022-07-26T01:13:35.267Z,3.40
2022-07-26T01:16:04.000Z,3.55
2022-07-26T01:18:31.589Z,3.35
2022-07-26T01:21:00.918Z,2.85
2022-07-26T01:23:29.004Z,3.62
2022-07-26T01:25:59.678Z,3.40
2022-07-26T01:28:27.984Z,3.15
2022-07-26T01:30:55.860Z,3.22
2022-07-26T01:33:23.324Z,3.10
2022-07-26T01:35:50.829Z,3.85
2022-07-26T01:38:18.651Z,3.08
2022-07-26T01:40:46.225Z,3.42
2022-07-26T01:43:13.747Z,3.53
2022-07-26T01:45:41.721Z,3.33
2022-07-26T01:48:09.340Z,3.60
2022-07-26T01:50:38.401Z,3.00
2022-07-26T01:53:06.553Z,3.10
2022-07-26T01:55:35.083Z,3.33
2022-07-26T01:58:05.247Z,3.05
2022-07-26T02:00:34.154Z,3.22
2022-07-26T02:03:02.118Z,3.30
2022-07-26T02:05:29.906Z,3.33
2022-07-26T02:07:57.389Z,3.10
2022-07-26T02:10:45.714Z,3.45
2022-07-26T02:13:14.959Z,3.28
2022-07-26T02:15:42.793Z,3.20
2022-07-26T02:18:10.296Z,3.30
2022-07-26T02:20:37.869Z,3.50
2022-07-26T02:23:05.746Z,3.12
2022-07-26T02:25:33.342Z,3.20
2022-07-26T02:28:01.629Z,3.87
2022-07-26T02:30:29.467Z,3.10
2022-07-26T02:32:57.033Z,3.62
2022-07-26T02:35:24.514Z,3.40
2022-07-26T02:37:52.404Z,3.53
2022-07-26T02:40:19.887Z,3.87
2022-07-26T02:42:47.402Z,3.83
2022-07-26T02:45:15.173Z,3.00
2022-07-26T02:47:50.397Z,3.62
2022-07-26T02:50:19.121Z,3.00
2022-07-26T02:52:48.217Z,3.30
2022-07-26T02:55:17.339Z,3.53
2022-07-26T02:57:46.156Z,3.72
2022-07-26T03:00:16.450Z,3.42
2022-07-26T03:02:44.064Z,3.85
2022-07-26T03:05:12.303Z,3.25
2022-07-26T03:07:39.825Z,3.70
2022-07-26T03:10:08.109Z,3.05
2022-07-26T03:12:35.869Z,4.25
2022-07-26T03:15:03.830Z,4.05
2022-07-26T03:17:32.224Z,3.55
2022-07-26T03:20:00.249Z,2.72
2022-07-26T03:22:27.722Z,3.45
2022-07-26T03:24:55.207Z,3.25
2022-07-26T03:27:23.074Z,3.65
2022-07-26T03:29:50.565Z,3.72
2022-07-26T03:32:18.050Z,3.80
2022-07-26T03:34:45.794Z,3.58
2022-07-26T03:37:13.253Z,3.92
2022-07-26T03:39:40.729Z,3.53
2022-07-26T03:42:08.542Z,4.35
2022-07-26T03:44:36.186Z,3.67
2022-07-26T03:47:03.827Z,3.95
2022-07-26T03:49:31.682Z,3.30
2022-07-26T03:51:59.341Z,3.83
2022-07-26T03:54:26.826Z,4.05
2022-07-26T03:56:54.553Z,3.92
2022-07-26T03:59:24.089Z,4.35
2022-07-26T04:01:51.858Z,4.43
2022-07-26T04:04:20.905Z,3.90
2022-07-26T04:06:52.993Z,4.22
2022-07-26T04:09:20.737Z,4.93
2022-07-26T04:11:48.708Z,4.15
2022-07-26T04:14:16.394Z,4.35
2022-07-26T04:16:44.195Z,4.15
2022-07-26T04:19:11.724Z,4.30
2022-07-26T04:21:39.210Z,4.37
2022-07-26T04:24:07.705Z,5.32
2022-07-26T04:26:35.414Z,4.20
2022-07-26T04:29:02.919Z,3.97
2022-07-26T04:31:36.238Z,3.95
2022-07-26T04:34:04.366Z,4.15
2022-07-26T04:36:32.349Z,4.68
2022-07-26T04:38:59.818Z,5.37
2022-07-26T04:41:27.858Z,5.10
2022-07-26T04:43:56.275Z,5.20
2022-07-26T04:46:25.299Z,4.72
2022-07-26T04:48:52.908Z,4.40
2022-07-26T04:51:20.970Z,5.03
2022-07-26T04:53:48.434Z,5.00
2022-07-26T04:56:15.890Z,5.43
2022-07-26T04:58:43.682Z,5.00
2022-07-26T05:01:11.480Z,4.95
2022-07-26T05:03:39.319Z,4.32
2022-07-26T05:06:07.139Z,5.20
2022-07-26T05:08:34.654Z,5.03
2022-07-26T05:11:02.182Z,4.62
2022-07-26T05:13:31.004Z,4.82
2022-07-26T05:15:59.848Z,4.30
2022-07-26T05:18:29.274Z,5.00
2022-07-26T05:20:59.187Z,4.85
2022-07-26T05:23:26.722Z,4.25
2022-07-26T05:25:55.446Z,4.85
2022-07-26T05:28:23.534Z,5.03
2022-07-26T05:30:51.275Z,5.00
2022-07-26T05:33:18.872Z,5.07
2022-07-26T05:35:46.613Z,4.62
2022-07-26T05:38:14.132Z,5.07
2022-07-26T05:40:42.126Z,5.20
2022-07-26T05:43:11.791Z,5.82
2022-07-26T05:45:39.424Z,5.43
2022-07-26T05:48:07.270Z,5.10
2022-07-26T05:50:35.011Z,5.30
2022-07-26T05:53:02.597Z,5.20
2022-07-26T05:55:30.086Z,5.93
2022-07-26T05:57:57.842Z,5.05
2022-07-26T06:00:26.093Z,5.55
2022-07-26T06:02:53.888Z,4.87
2022-07-26T06:05:21.394Z,5.60
2022-07-26T06:07:48.889Z,5.65
2022-07-26T06:10:16.650Z,5.60
2022-07-26T06:12:44.183Z,5.12
2022-07-26T06:15:15.718Z,6.07
2022-07-26T06:17:43.804Z,7.53
2022-07-26T06:20:11.706Z,6.30
2022-07-26T06:22:39.252Z,6.82
2022-07-26T06:25:07.549Z,6.32
2022-07-26T06:27:34.998Z,7.03
2022-07-26T06:30:02.472Z,6.97
2022-07-26T06:32:30.422Z,6.43
2022-07-26T06:34:57.890Z,6.78
2022-07-26T06:37:25.829Z,6.28
2022-07-26T06:39:53.629Z,6.15
2022-07-26T06:42:21.186Z,5.47
2022-07-26T06:44:48.697Z,5.78
2022-07-26T06:47:16.567Z,6.47
2022-07-26T06:49:44.871Z,5.80
2022-07-26T06:52:12.387Z,6.05
2022-07-26T06:54:40.168Z,5.85
2022-07-26T06:57:07.950Z,6.53
2022-07-26T06:59:35.514Z,6.03
2022-07-26T07:02:04.475Z,5.55
2022-07-26T07:04:32.807Z,6.30
2022-07-26T07:07:06.099Z,6.10
2022-07-26T07:09:35.999Z,6.83
2022-07-26T07:12:10.348Z,5.93
2022-07-26T07:14:39.192Z,5.97
2022-07-26T07:17:12.247Z,5.95
2022-07-26T07:19:41.861Z,5.68
2022-07-26T07:22:12.336Z,5.93
2022-07-26T07:24:40.937Z,5.50
2022-07-26T07:27:10.403Z,6.20
2022-07-26T07:29:38.792Z,4.57
2022-07-26T07:32:18.297Z,5.78
2022-07-26T07:34:50.959Z,6.07
2022-07-26T07:37:20.233Z,5.50
2022-07-26T07:39:50.025Z,5.25
2022-07-26T07:42:19.626Z,4.80
2022-07-26T07:44:47.583Z,4.80
2022-07-26T07:47:15.124Z,5.15
2022-07-26T07:49:43.148Z,5.20
2022-07-26T07:52:10.893Z,5.30
2022-07-26T07:54:38.329Z,5.20
2022-07-26T07:57:05.812Z,5.20
2022-07-26T07:59:33.691Z,5.10
2022-07-26T08:02:06.958Z,4.95
2022-07-26T08:04:35.000Z,4.87
2022-07-26T08:07:02.574Z,4.97
2022-07-26T08:09:30.054Z,5.12
2022-07-26T08:12:02.821Z,5.15
2022-07-26T08:14:30.343Z,5.80
2022-07-26T08:16:58.071Z,6.25
2022-07-26T08:19:26.478Z,5.22
2022-07-26T08:22:08.755Z,5.68
2022-07-26T08:24:36.712Z,5.07
2022-07-26T08:27:04.509Z,4.75
2022-07-26T08:29:32.075Z,4.57
2022-07-26T08:31:59.856Z,5.03
2022-07-26T08:34:27.383Z,4.87
2022-07-26T08:37:16.115Z,5.45
2022-07-26T08:39:42.643Z,5.60
2022-07-26T08:42:15.109Z,5.10
2022-07-26T08:44:47.259Z,4.60
2022-07-26T08:47:16.752Z,4.68
2022-07-26T08:50:03.483Z,4.53
2022-07-26T08:52:31.113Z,4.68
2022-07-26T08:54:58.717Z,5.00
2022-07-26T08:57:26.505Z,4.70
2022-07-26T09:00:15.819Z,4.78
2022-07-26T09:02:43.811Z,4.90
2022-07-26T09:05:11.672Z,4.93
2022-07-26T09:07:41.056Z,4.50
2022-07-26T09:10:11.045Z,5.30
2022-07-26T09:12:39.383Z,5.05
2022-07-26T09:15:16.910Z,5.00
2022-07-26T09:17:46.950Z,5.00
2022-07-26T09:20:17.219Z,4.78
2022-07-26T09:23:06.984Z,5.28
2022-07-26T09:25:39.574Z,4.70
2022-07-26T09:28:31.048Z,4.72
2022-07-26T09:31:04.224Z,4.60
2022-07-26T09:33:48.916Z,5.20
2022-07-26T09:36:17.635Z,5.60
2022-07-26T09:38:50.393Z,5.15
2022-07-26T09:41:22.476Z,5.37
2022-07-26T09:43:53.951Z,5.85
2022-07-26T09:46:23.645Z,5.43
2022-07-26T09:49:10.065Z,5.03
2022-07-26T09:51:43.764Z,5.15
2022-07-26T09:54:13.328Z,5.68
2022-07-26T09:56:50.431Z,5.72
2022-07-26T09:59:20.313Z,5.57
2022-07-26T10:01:49.158Z,5.70
2022-07-26T10:04:17.273Z,5.80
2022-07-26T10:06:44.837Z,6.95
2022-07-26T10:09:13.316Z,6.50
2022-07-26T10:11:52.717Z,6.20
2022-07-26T10:14:37.349Z,6.32
2022-07-26T10:17:29.223Z,6.62
2022-07-26T10:20:09.433Z,6.20
2022-07-26T10:22:50.597Z,6.65
2022-07-26T10:25:18.207Z,6.65
2022-07-26T10:27:47.185Z,7.25
2022-07-26T10:30:22.495Z,7.43
2022-07-26T10:33:01.498Z,7.25
2022-07-26T10:35:31.846Z,6.37
2022-07-26T10:38:04.533Z,7.47
2022-07-26T10:40:32.400Z,7.50
2022-07-26T10:43:39.547Z,8.35
2022-07-26T10:46:29.212Z,6.68
2022-07-26T10:49:06.944Z,7.87
2022-07-26T10:51:37.061Z,7.97
2022-07-26T10:54:13.193Z,8.15
2022-07-26T10:56:41.433Z,8.23
2022-07-26T10:59:09.263Z,8.48
2022-07-26T11:01:42.174Z,7.93
2022-07-26T11:04:20.546Z,6.05
2022-07-26T11:06:48.407Z,8.05
2022-07-26T11:09:18.509Z,8.25
2022-07-26T11:11:48.742Z,7.87
2022-07-26T11:14:18.095Z,7.45
2022-07-26T11:16:48.019Z,7.57
2022-07-26T11:19:24.885Z,7.65
2022-07-26T11:21:58.684Z,7.32
2022-07-26T11:24:27.484Z,7.60
2022-07-26T11:26:55.477Z,7.22
2022-07-26T11:29:38.188Z,7.28
2022-07-26T11:32:20.623Z,7.10
2022-07-26T11:35:04.739Z,6.72
2022-07-26T11:37:32.607Z,6.70
2022-07-26T11:40:00.280Z,6.72
2022-07-26T11:42:28.056Z,6.97
2022-07-26T11:44:55.849Z,7.82
2022-07-26T11:47:25.731Z,7.15
2022-07-26T11:50:13.929Z,7.00
2022-07-26T11:52:42.181Z,7.95
2022-07-26T11:55:09.821Z,6.57
2022-07-26T11:57:37.653Z,7.43
2022-07-26T12:00:06.862Z,8.10
2022-07-26T12:02:39.202Z,8.20
2022-07-26T12:05:16.263Z,7.62
2022-07-26T12:07:58.013Z,7.35
2022-07-26T12:10:26.568Z,7.40
2022-07-26T12:13:07.640Z,7.87
2022-07-26T12:15:52.498Z,8.00
2022-07-26T12:18:26.858Z,7.32
2022-07-26T12:21:04.490Z,6.78
2022-07-26T12:23:49.874Z,7.45
2022-07-26T12:26:26.013Z,6.43
2022-07-26T12:28:54.602Z,7.15
2022-07-26T12:31:27.644Z,6.80
2022-07-26T12:33:55.946Z,6.50
2022-07-26T12:36:27.771Z,6.65
2022-07-26T12:38:58.512Z,6.55
2022-07-26T12:41:34.981Z,6.07
2022-07-26T12:44:03.619Z,6.47
2022-07-26T12:46:35.445Z,6.75
2022-07-26T12:49:03.925Z,6.93
2022-07-26T12:51:31.979Z,6.80
2022-07-26T12:53:59.488Z,8.15
2022-07-26T12:56:27.131Z,7.12
2022-07-26T12:59:01.089Z,8.02
2022-07-26T13:01:30.060Z,7.37
2022-07-26T13:03:58.082Z,7.22
2022-07-26T13:06:25.621Z,7.85
2022-07-26T13:08:53.872Z,7.80
2022-07-26T13:11:21.708Z,8.05
2022-07-26T13:13:49.569Z,7.03
2022-07-26T13:16:17.200Z,6.47
2022-07-26T13:18:45.020Z,5.90
2022-07-26T13:21:12.575Z,6.90
2022-07-26T13:23:40.118Z,5.95
2022-07-26T13:26:09.493Z,6.85
2022-07-26T13:28:39.926Z,5.97
2022-07-26T13:31:08.060Z,6.53
2022-07-26T13:33:39.295Z,5.72
2022-07-26T13:36:06.955Z,5.75
2022-07-26T13:38:35.103Z,6.78
2022-07-26T13:41:03.182Z,5.93
2022-07-26T13:43:35.351Z,6.10
2022-07-26T13:46:04.008Z,6.32
2022-07-26T13:48:31.748Z,6.37
2022-07-26T13:50:59.685Z,5.78
2022-07-26T13:53:27.680Z,6.22
2022-07-26T13:55:55.255Z,5.57
2022-07-26T13:58:22.946Z,6.03
2022-07-26T14:00:50.775Z,5.30
2022-07-26T14:03:18.600Z,5.68
2022-07-26T14:05:46.601Z,6.05
2022-07-26T14:08:14.107Z,6.45
2022-07-26T14:10:42.145Z,6.22
2022-07-26T14:13:09.685Z,6.60
2022-07-26T14:15:37.411Z,6.37
2022-07-26T14:18:05.268Z,7.07
2022-07-26T14:20:32.934Z,6.65
2022-07-26T14:23:00.501Z,7.60
2022-07-26T14:25:28.617Z,6.82
2022-07-26T14:27:56.204Z,6.82
2022-07-26T14:30:23.948Z,7.05
2022-07-26T14:32:51.818Z,7.12
2022-07-26T14:35:19.372Z,8.18
2022-07-26T14:37:46.941Z,7.40
2022-07-26T14:40:16.214Z,7.05
2022-07-26T14:42:44.837Z,7.93
2022-07-26T14:45:13.111Z,7.30
2022-07-26T14:47:41.018Z,7.35
2022-07-26T14:50:10.191Z,7.62
2022-07-26T14:52:43.348Z,7.20
2022-07-26T14:55:11.596Z,7.00
2022-07-26T14:57:40.270Z,7.62
2022-07-26T15:00:10.746Z,8.35
2022-07-26T15:02:43.644Z,7.87
2022-07-26T15:05:12.204Z,8.40
2022-07-26T15:07:40.783Z,7.47
2022-07-26T15:10:10.541Z,7.57
2022-07-26T15:12:38.890Z,7.75
2022-07-26T15:15:07.792Z,7.25
2022-07-26T15:17:35.839Z,8.18
2022-07-26T15:20:05.074Z,8.18
2022-07-26T15:22:34.818Z,8.48
2022-07-26T15:25:03.703Z,8.35
2022-07-26T15:27:31.366Z,8.13
2022-07-26T15:30:04.183Z,8.63
2022-07-26T15:32:34.208Z,8.02
2022-07-26T15:35:02.369Z,8.85
2022-07-26T15:37:29.999Z,7.93
2022-07-26T15:39:57.675Z,8.25
2022-07-26T15:42:25.530Z,9.18
2022-07-26T15:44:53.181Z,8.80
2022-07-26T15:50:11.239Z,8.70
2022-07-26T15:52:40.590Z,7.85
2022-07-26T15:55:09.161Z,8.63
2022-07-26T15:57:37.385Z,8.10
2022-07-26T16:00:11.433Z,8.18
2022-07-26T16:02:40.560Z,9.02
2022-07-26T16:05:09.132Z,8.57
2022-07-26T16:07:37.415Z,8.27
2022-07-26T16:10:05.798Z,8.30
2022-07-26T16:12:33.661Z,8.30
2022-07-26T16:15:01.324Z,9.43
2022-07-26T16:17:29.165Z,10.48
2022-07-26T16:19:56.716Z,9.50
2022-07-26T16:22:24.444Z,9.77
2022-07-26T16:24:52.341Z,9.45
2022-07-26T16:27:20.008Z,10.60
2022-07-26T16:29:52.004Z,10.25
2022-07-26T16:32:21.414Z,9.90
2022-07-26T16:34:49.266Z,11.10
2022-07-26T16:37:16.826Z,11.35
2022-07-26T16:39:44.643Z,11.73
2022-07-26T16:42:12.194Z,12.35
2022-07-26T16:44:39.772Z,12.93
2022-07-26T16:47:07.674Z,11.18
2022-07-26T16:49:35.339Z,13.15
2022-07-26T16:52:03.106Z,13.23
2022-07-26T16:54:31.134Z,12.73
2022-07-26T16:57:00.026Z,13.40
2022-07-26T16:59:28.869Z,14.05
2022-07-26T17:01:56.896Z,12.90
2022-07-26T17:04:29.145Z,13.73
2022-07-26T17:07:23.206Z,13.35
2022-07-26T17:09:44.431Z,14.40
2022-07-26T17:12:13.238Z,13.02
2022-07-26T17:14:40.732Z,13.27
2022-07-26T17:17:08.373Z,13.98
2022-07-26T17:19:36.180Z,14.18
2022-07-26T17:22:03.929Z,13.43
2022-07-26T17:24:31.709Z,12.05
2022-07-26T17:27:00.964Z,13.35
2022-07-26T17:29:28.542Z,14.40
2022-07-26T17:31:56.141Z,13.18
2022-07-26T17:34:24.011Z,13.40
2022-07-26T17:37:02.528Z,12.82
2022-07-26T17:39:52.369Z,12.48
2022-07-26T17:42:21.632Z,14.15
2022-07-26T17:44:50.170Z,13.68
2022-07-26T17:47:29.279Z,14.27
2022-07-26T17:52:50.480Z,12.85
2022-07-26T17:55:19.496Z,12.35
2022-07-26T17:57:48.313Z,12.37
2022-07-26T18:00:21.973Z,12.30
2022-07-26T18:02:49.882Z,12.27
2022-07-26T18:05:19.033Z,12.75
2022-07-26T18:07:46.816Z,12.50
2022-07-26T18:10:14.808Z,12.40
2022-07-26T18:12:42.557Z,13.00
2022-07-26T18:15:10.360Z,13.38
2022-07-26T18:17:38.333Z,12.98
2022-07-26T18:20:07.694Z,13.25
2022-07-26T18:22:35.418Z,13.98
2022-07-26T18:25:04.004Z,14.25
2022-07-26T18:27:32.087Z,13.80
2022-07-26T18:30:00.540Z,13.77
2022-07-26T18:32:28.397Z,14.27
2022-07-26T18:34:56.241Z,14.10
2022-07-26T18:37:23.730Z,15.27
2022-07-26T18:39:57.331Z,14.68
2022-07-26T18:42:26.044Z,15.95
2022-07-26T18:44:53.900Z,15.75
2022-07-26T18:47:21.853Z,15.98
2022-07-26T18:49:50.218Z,16.70
2022-07-26T18:52:28.923Z,17.08
2022-07-26T18:55:07.032Z,15.85
2022-07-26T18:57:36.777Z,16.23
2022-07-26T19:00:12.697Z,16.02
2022-07-26T19:02:41.810Z,17.60
2022-07-26T19:05:10.242Z,15.88
2022-07-26T19:07:38.304Z,15.80
2022-07-26T19:10:07.619Z,15.32
2022-07-26T19:12:35.468Z,15.73
2022-07-26T19:15:03.844Z,16.55
2022-07-26T19:17:32.971Z,16.25
2022-07-26T19:20:00.807Z,15.45
2022-07-26T19:22:30.486Z,15.27
2022-07-26T19:24:58.368Z,15.18
2022-07-26T19:27:26.123Z,15.15
2022-07-26T19:29:54.626Z,15.25
2022-07-26T19:32:23.718Z,15.05
2022-07-26T19:34:51.611Z,14.80
2022-07-26T19:37:22.695Z,14.95
2022-07-26T19:39:52.241Z,14.77
2022-07-26T19:42:20.324Z,15.32
2022-07-26T19:44:48.130Z,14.95
2022-07-26T19:47:16.127Z,14.15
2022-07-26T19:49:44.050Z,14.18
2022-07-26T19:52:12.040Z,15.95
2022-07-26T19:54:40.574Z,15.20
2022-07-26T19:57:08.370Z,14.65
2022-07-26T19:59:37.043Z,15.15
2022-07-26T20:02:05.710Z,14.00
2022-07-26T20:04:41.809Z,14.15
2022-07-26T20:07:16.010Z,14.50
2022-07-26T20:09:43.862Z,14.30
2022-07-26T20:12:11.370Z,14.57
2022-07-26T20:14:40.008Z,15.35
2022-07-26T20:17:12.063Z,15.73
2022-07-26T20:19:41.212Z,15.00
2022-07-26T20:22:09.252Z,15.55
2022-07-26T20:24:38.245Z,14.20
2022-07-26T20:27:07.020Z,15.40
2022-07-26T20:29:35.025Z,14.63
2022-07-26T20:32:02.656Z,15.13
2022-07-26T20:34:30.196Z,15.75
2022-07-26T20:36:58.200Z,14.27
2022-07-26T20:39:27.803Z,14.75
2022-07-26T20:41:55.427Z,15.93
2022-07-26T20:44:28.139Z,16.08
2022-07-26T20:46:56.248Z,14.93
2022-07-26T20:49:24.150Z,14.35
2022-07-26T20:51:51.865Z,14.90
2022-07-26T20:54:19.411Z,14.27
2022-07-26T20:56:47.217Z,15.05
2022-07-26T20:59:15.267Z,14.77
2022-07-26T21:01:44.013Z,14.30
2022-07-26T21:04:12.112Z,13.77
2022-07-26T21:06:39.661Z,14.73
2022-07-26T21:09:08.886Z,13.50
2022-07-26T21:11:38.827Z,14.70
2022-07-26T21:14:06.711Z,13.73
2022-07-26T21:16:34.319Z,12.98
2022-07-26T21:19:02.942Z,13.35
2022-07-26T21:21:30.712Z,13.00
2022-07-26T21:23:58.239Z,14.18
2022-07-26T21:26:26.059Z,12.57
2022-07-26T21:28:53.626Z,11.93
2022-07-26T21:31:21.331Z,12.80
2022-07-26T21:33:49.137Z,12.25
2022-07-26T21:36:16.829Z,12.23
2022-07-26T21:38:44.396Z,11.63
2022-07-26T21:41:13.405Z,11.75
2022-07-26T21:43:41.805Z,10.93
2022-07-26T21:46:12.800Z,12.57
2022-07-26T21:48:41.284Z,11.57
2022-07-26T21:51:08.901Z,11.52
2022-07-26T21:53:36.483Z,11.82
2022-07-26T21:56:05.657Z,12.00
2022-07-26T21:58:36.645Z,10.90
2022-07-26T22:01:10.934Z,11.88
2022-07-26T22:03:40.189Z,10.17
2022-07-26T22:06:08.264Z,10.32
2022-07-26T22:08:36.217Z,11.20
2022-07-26T22:11:04.197Z,10.80
2022-07-26T22:13:32.016Z,10.50
2022-07-26T22:15:59.670Z,10.02
2022-07-26T22:18:27.665Z,10.43
2022-07-26T22:20:55.724Z,9.60
2022-07-26T22:23:23.456Z,9.15
2022-07-26T22:25:51.251Z,9.70
2022-07-26T22:28:19.003Z,8.30
2022-07-26T22:30:47.366Z,8.48
2022-07-26T22:33:15.329Z,8.90
2022-07-26T22:35:42.824Z,9.25
2022-07-26T22:38:11.133Z,9.45
2022-07-26T22:40:40.364Z,8.98
2022-07-26T22:43:08.430Z,8.60
2022-07-26T22:45:36.692Z,8.27
2022-07-26T22:48:05.626Z,7.70
2022-07-26T22:50:33.806Z,8.73
2022-07-26T22:53:01.794Z,8.45
2022-07-26T22:55:29.932Z,8.48
2022-07-26T22:57:57.668Z,7.68
2022-07-26T23:00:25.364Z,8.23
2022-07-26T23:02:53.376Z,7.95
2022-07-26T23:05:21.673Z,8.73
2022-07-26T23:08:18.359Z,8.13
2022-07-26T23:10:52.878Z,7.72
2022-07-26T23:13:21.289Z,8.40
2022-07-26T23:15:53.548Z,7.35
2022-07-26T23:18:24.173Z,8.07
2022-07-26T23:20:51.725Z,7.60
2022-07-26T23:23:19.305Z,7.53
2022-07-26T23:25:47.663Z,8.35
2022-07-26T23:28:35.222Z,7.47
2022-07-26T23:31:07.756Z,7.25
2022-07-26T23:33:51.584Z,6.97
2022-07-26T23:36:25.816Z,7.47
2022-07-26T23:38:57.850Z,8.10
2022-07-26T23:41:26.658Z,8.63
2022-07-26T23:43:54.604Z,8.13
2022-07-26T23:46:22.981Z,7.60
2022-07-26T23:48:51.356Z,8.05
2022-07-26T23:51:19.604Z,7.60
2022-07-26T23:53:47.272Z,7.07
2022-07-26T23:56:15.638Z,7.47
2022-07-26T23:58:43.416Z,7.40
